sensor_id;sensor_type;location;lat;lon;timestamp;P1;durP1;ratioP1;P2;durP2;ratioP2
12900;SDS011;6518;50.930;5.344;2022-09-14T00:00:51;4.68;;;3.60;;
12900;SDS011;6518;50.930;5.344;2022-09-14T00:03:18;5.18;;;3.58;;
12900;SDS011;6518;50.930;5.344;2022-09-14T00:05:45;8.55;;;3.88;;
12900;SDS011;6518;50.930;5.344;2022-09-14T00:08:12;6.88;;;3.63;;
12900;SDS011;6518;50.930;5.344;2022-09-14T00:10:41;6.78;;;3.28;;
12900;SDS011;6518;50.930;5.344;2022-09-14T00:13:10;5.43;;;3.45;;
12900;SDS011;6518;50.930;5.344;2022-09-14T00:15:39;5.88;;;3.38;;
12900;SDS011;6518;50.930;5.344;2022-09-14T00:18:09;4.75;;;3.30;;
12900;SDS011;6518;50.930;5.344;2022-09-14T00:20:36;6.07;;;3.35;;
12900;SDS011;6518;50.930;5.344;2022-09-14T00:23:03;6.30;;;3.58;;
12900;SDS011;6518;50.930;5.344;2022-09-14T00:25:30;7.85;;;3.20;;
12900;SDS011;6518;50.930;5.344;2022-09-14T00:27:59;9.77;;;3.05;;
12900;SDS011;6518;50.930;5.344;2022-09-14T00:30:26;6.55;;;2.90;;
12900;SDS011;6518;50.930;5.344;2022-09-14T00:32:53;5.35;;;3.10;;
12900;SDS011;6518;50.930;5.344;2022-09-14T00:35:20;7.85;;;3.40;;
12900;SDS011;6518;50.930;5.344;2022-09-14T00:37:47;5.03;;;2.75;;
12900;SDS011;6518;50.930;5.344;2022-09-14T00:40:15;6.90;;;2.83;;
12900;SDS011;6518;50.930;5.344;2022-09-14T00:42:42;8.40;;;3.33;;
12900;SDS011;6518;50.930;5.344;2022-09-14T00:45:14;5.57;;;2.58;;
12900;SDS011;6518;50.930;5.344;2022-09-14T00:47:42;8.63;;;3.03;;
12900;SDS011;6518;50.930;5.344;2022-09-14T00:50:11;7.63;;;3.20;;
12900;SDS011;6518;50.930;5.344;2022-09-14T00:52:40;10.27;;;2.90;;
12900;SDS011;6518;50.930;5.344;2022-09-14T00:55:10;6.47;;;2.72;;
12900;SDS011;6518;50.930;5.344;2022-09-14T00:57:39;7.97;;;3.00;;
12900;SDS011;6518;50.930;5.344;2022-09-14T01:00:09;6.90;;;3.03;;
12900;SDS011;6518;50.930;5.344;2022-09-14T01:02:40;5.88;;;3.00;;
12900;SDS011;6518;50.930;5.344;2022-09-14T01:05:07;6.80;;;3.20;;
12900;SDS011;6518;50.930;5.344;2022-09-14T01:07:41;6.07;;;2.88;;
12900;SDS011;6518;50.930;5.344;2022-09-14T01:10:20;6.65;;;3.25;;
12900;SDS011;6518;50.930;5.344;2022-09-14T01:12:58;9.20;;;3.35;;
12900;SDS011;6518;50.930;5.344;2022-09-14T01:15:34;4.55;;;3.00;;
12900;SDS011;6518;50.930;5.344;2022-09-14T01:18:12;4.70;;;2.40;;
12900;SDS011;6518;50.930;5.344;2022-09-14T01:20:43;6.00;;;3.25;;
12900;SDS011;6518;50.930;5.344;2022-09-14T01:23:16;7.10;;;3.45;;
12900;SDS011;6518;50.930;5.344;2022-09-14T01:28:56;8.40;;;3.78;;
12900;SDS011;6518;50.930;5.344;2022-09-14T01:31:26;7.65;;;3.50;;
12900;SDS011;6518;50.930;5.344;2022-09-14T01:33:59;7.75;;;3.25;;
12900;SDS011;6518;50.930;5.344;2022-09-14T01:36:31;8.00;;;3.75;;
12900;SDS011;6518;50.930;5.344;2022-09-14T01:39:01;5.43;;;3.15;;
12900;SDS011;6518;50.930;5.344;2022-09-14T01:41:28;7.22;;;4.07;;
12900;SDS011;6518;50.930;5.344;2022-09-14T01:43:58;5.90;;;3.35;;
12900;SDS011;6518;50.930;5.344;2022-09-14T01:46:33;6.78;;;3.40;;
12900;SDS011;6518;50.930;5.344;2022-09-14T01:49:05;6.90;;;3.10;;
12900;SDS011;6518;50.930;5.344;2022-09-14T01:51:38;8.05;;;3.50;;
12900;SDS011;6518;50.930;5.344;2022-09-14T01:54:10;6.00;;;3.00;;
12900;SDS011;6518;50.930;5.344;2022-09-14T01:56:44;6.57;;;3.45;;
12900;SDS011;6518;50.930;5.344;2022-09-14T01:59:19;10.43;;;3.88;;
12900;SDS011;6518;50.930;5.344;2022-09-14T02:01:49;7.60;;;4.10;;
12900;SDS011;6518;50.930;5.344;2022-09-14T02:04:21;7.53;;;3.75;;
12900;SDS011;6518;50.930;5.344;2022-09-14T02:06:54;6.63;;;4.55;;
12900;SDS011;6518;50.930;5.344;2022-09-14T02:09:22;5.95;;;4.03;;
12900;SDS011;6518;50.930;5.344;2022-09-14T02:11:51;6.75;;;4.55;;
12900;SDS011;6518;50.930;5.344;2022-09-14T02:14:20;7.82;;;4.60;;
12900;SDS011;6518;50.930;5.344;2022-09-14T02:16:47;9.38;;;4.88;;
12900;SDS011;6518;50.930;5.344;2022-09-14T02:19:14;7.47;;;4.78;;
12900;SDS011;6518;50.930;5.344;2022-09-14T02:21:42;9.00;;;4.97;;
12900;SDS011;6518;50.930;5.344;2022-09-14T02:24:09;9.57;;;4.97;;
12900;SDS011;6518;50.930;5.344;2022-09-14T02:26:37;11.15;;;5.43;;
12900;SDS011;6518;50.930;5.344;2022-09-14T02:29:05;11.85;;;5.25;;
12900;SDS011;6518;50.930;5.344;2022-09-14T02:31:37;10.10;;;4.65;;
12900;SDS011;6518;50.930;5.344;2022-09-14T02:34:14;9.27;;;4.88;;
12900;SDS011;6518;50.930;5.344;2022-09-14T02:36:46;9.75;;;5.20;;
12900;SDS011;6518;50.930;5.344;2022-09-14T02:39:21;8.40;;;4.90;;
12900;SDS011;6518;50.930;5.344;2022-09-14T02:41:54;9.57;;;5.07;;
12900;SDS011;6518;50.930;5.344;2022-09-14T02:44:29;6.95;;;4.80;;
12900;SDS011;6518;50.930;5.344;2022-09-14T02:47:03;10.27;;;4.80;;
12900;SDS011;6518;50.930;5.344;2022-09-14T02:49:39;8.38;;;5.13;;
12900;SDS011;6518;50.930;5.344;2022-09-14T02:52:14;12.52;;;5.22;;
12900;SDS011;6518;50.930;5.344;2022-09-14T02:54:45;10.50;;;5.43;;
12900;SDS011;6518;50.930;5.344;2022-09-14T02:57:17;8.35;;;5.63;;
12900;SDS011;6518;50.930;5.344;2022-09-14T02:59:44;9.20;;;5.90;;
12900;SDS011;6518;50.930;5.344;2022-09-14T03:02:13;9.95;;;6.47;;
12900;SDS011;6518;50.930;5.344;2022-09-14T03:04:39;18.05;;;5.82;;
12900;SDS011;6518;50.930;5.344;2022-09-14T03:07:06;10.27;;;6.15;;
12900;SDS011;6518;50.930;5.344;2022-09-14T03:09:33;8.73;;;5.93;;
12900;SDS011;6518;50.930;5.344;2022-09-14T03:12:01;8.38;;;5.13;;
12900;SDS011;6518;50.930;5.344;2022-09-14T03:14:29;10.15;;;5.75;;
12900;SDS011;6518;50.930;5.344;2022-09-14T03:16:55;10.27;;;5.68;;
12900;SDS011;6518;50.930;5.344;2022-09-14T03:19:23;8.90;;;6.10;;
12900;SDS011;6518;50.930;5.344;2022-09-14T03:21:50;9.73;;;6.00;;
12900;SDS011;6518;50.930;5.344;2022-09-14T03:24:17;9.85;;;6.60;;
12900;SDS011;6518;50.930;5.344;2022-09-14T03:26:44;9.57;;;6.38;;
12900;SDS011;6518;50.930;5.344;2022-09-14T03:29:11;12.70;;;6.80;;
12900;SDS011;6518;50.930;5.344;2022-09-14T03:31:38;9.38;;;6.57;;
12900;SDS011;6518;50.930;5.344;2022-09-14T03:34:04;12.50;;;6.95;;
12900;SDS011;6518;50.930;5.344;2022-09-14T03:36:33;11.40;;;7.25;;
12900;SDS011;6518;50.930;5.344;2022-09-14T03:38:59;11.93;;;7.13;;
12900;SDS011;6518;50.930;5.344;2022-09-14T03:41:27;8.48;;;6.80;;
12900;SDS011;6518;50.930;5.344;2022-09-14T03:43:54;13.55;;;7.75;;
12900;SDS011;6518;50.930;5.344;2022-09-14T03:46:22;12.55;;;7.95;;
12900;SDS011;6518;50.930;5.344;2022-09-14T03:48:50;13.57;;;8.27;;
12900;SDS011;6518;50.930;5.344;2022-09-14T03:51:16;9.45;;;7.57;;
12900;SDS011;6518;50.930;5.344;2022-09-14T03:53:45;11.18;;;7.88;;
12900;SDS011;6518;50.930;5.344;2022-09-14T03:56:12;12.48;;;8.50;;
12900;SDS011;6518;50.930;5.344;2022-09-14T03:58:41;10.63;;;7.68;;
12900;SDS011;6518;50.930;5.344;2022-09-14T04:01:10;12.15;;;9.30;;
12900;SDS011;6518;50.930;5.344;2022-09-14T04:03:38;11.77;;;7.97;;
12900;SDS011;6518;50.930;5.344;2022-09-14T04:06:06;15.02;;;8.63;;
12900;SDS011;6518;50.930;5.344;2022-09-14T04:08:34;11.07;;;8.30;;
12900;SDS011;6518;50.930;5.344;2022-09-14T04:11:06;12.60;;;8.63;;
12900;SDS011;6518;50.930;5.344;2022-09-14T04:13:34;12.27;;;8.70;;
12900;SDS011;6518;50.930;5.344;2022-09-14T04:16:02;12.27;;;8.48;;
12900;SDS011;6518;50.930;5.344;2022-09-14T04:18:29;13.13;;;9.05;;
12900;SDS011;6518;50.930;5.344;2022-09-14T04:20:56;11.93;;;9.48;;
12900;SDS011;6518;50.930;5.344;2022-09-14T04:23:24;12.65;;;9.40;;
12900;SDS011;6518;50.930;5.344;2022-09-14T04:25:52;16.80;;;10.38;;
12900;SDS011;6518;50.930;5.344;2022-09-14T04:28:21;13.93;;;9.98;;
12900;SDS011;6518;50.930;5.344;2022-09-14T04:30:54;13.85;;;9.95;;
12900;SDS011;6518;50.930;5.344;2022-09-14T04:33:22;14.73;;;10.63;;
12900;SDS011;6518;50.930;5.344;2022-09-14T04:35:56;13.20;;;9.85;;
12900;SDS011;6518;50.930;5.344;2022-09-14T04:38:23;14.60;;;10.50;;
12900;SDS011;6518;50.930;5.344;2022-09-14T04:40:50;15.35;;;10.65;;
12900;SDS011;6518;50.930;5.344;2022-09-14T04:43:17;14.60;;;11.32;;
12900;SDS011;6518;50.930;5.344;2022-09-14T04:45:45;14.95;;;12.05;;
12900;SDS011;6518;50.930;5.344;2022-09-14T04:48:12;15.30;;;12.30;;
12900;SDS011;6518;50.930;5.344;2022-09-14T04:50:39;15.73;;;13.18;;
12900;SDS011;6518;50.930;5.344;2022-09-14T04:53:06;18.63;;;14.18;;
12900;SDS011;6518;50.930;5.344;2022-09-14T04:55:33;15.73;;;13.95;;
12900;SDS011;6518;50.930;5.344;2022-09-14T04:58:00;16.27;;;14.60;;
12900;SDS011;6518;50.930;5.344;2022-09-14T05:00:27;21.45;;;15.93;;
12900;SDS011;6518;50.930;5.344;2022-09-14T05:02:55;16.92;;;14.98;;
12900;SDS011;6518;50.930;5.344;2022-09-14T05:05:22;16.77;;;15.02;;
12900;SDS011;6518;50.930;5.344;2022-09-14T05:07:49;20.88;;;16.80;;
12900;SDS011;6518;50.930;5.344;2022-09-14T05:10:16;16.92;;;15.07;;
12900;SDS011;6518;50.930;5.344;2022-09-14T05:12:43;15.32;;;13.80;;
12900;SDS011;6518;50.930;5.344;2022-09-14T05:15:10;16.17;;;14.65;;
12900;SDS011;6518;50.930;5.344;2022-09-14T05:17:36;17.00;;;15.40;;
12900;SDS011;6518;50.930;5.344;2022-09-14T05:20:05;17.23;;;15.52;;
12900;SDS011;6518;50.930;5.344;2022-09-14T05:22:33;16.10;;;14.43;;
12900;SDS011;6518;50.930;5.344;2022-09-14T05:24:59;15.88;;;14.13;;
12900;SDS011;6518;50.930;5.344;2022-09-14T05:27:27;18.63;;;15.52;;
12900;SDS011;6518;50.930;5.344;2022-09-14T05:29:54;16.70;;;15.05;;
12900;SDS011;6518;50.930;5.344;2022-09-14T05:32:20;17.52;;;15.82;;
12900;SDS011;6518;50.930;5.344;2022-09-14T05:34:47;20.90;;;16.23;;
12900;SDS011;6518;50.930;5.344;2022-09-14T05:37:15;18.25;;;16.55;;
12900;SDS011;6518;50.930;5.344;2022-09-14T05:39:42;17.90;;;16.05;;
12900;SDS011;6518;50.930;5.344;2022-09-14T05:42:09;18.35;;;16.67;;
12900;SDS011;6518;50.930;5.344;2022-09-14T05:44:36;18.88;;;16.98;;
12900;SDS011;6518;50.930;5.344;2022-09-14T05:47:02;19.98;;;17.85;;
12900;SDS011;6518;50.930;5.344;2022-09-14T05:49:29;18.17;;;16.33;;
12900;SDS011;6518;50.930;5.344;2022-09-14T05:51:56;18.85;;;17.15;;
12900;SDS011;6518;50.930;5.344;2022-09-14T05:54:24;19.42;;;17.35;;
12900;SDS011;6518;50.930;5.344;2022-09-14T05:56:51;18.05;;;16.25;;
12900;SDS011;6518;50.930;5.344;2022-09-14T05:59:19;19.25;;;17.50;;
12900;SDS011;6518;50.930;5.344;2022-09-14T06:01:45;21.83;;;19.83;;
12900;SDS011;6518;50.930;5.344;2022-09-14T06:04:12;20.33;;;18.30;;
12900;SDS011;6518;50.930;5.344;2022-09-14T06:06:39;19.25;;;17.45;;
12900;SDS011;6518;50.930;5.344;2022-09-14T06:09:06;18.95;;;16.98;;
12900;SDS011;6518;50.930;5.344;2022-09-14T06:11:35;18.20;;;16.40;;
12900;SDS011;6518;50.930;5.344;2022-09-14T06:14:02;17.60;;;15.80;;
12900;SDS011;6518;50.930;5.344;2022-09-14T06:16:30;15.93;;;14.43;;
12900;SDS011;6518;50.930;5.344;2022-09-14T06:18:57;18.02;;;16.27;;
12900;SDS011;6518;50.930;5.344;2022-09-14T06:21:26;18.63;;;16.67;;
12900;SDS011;6518;50.930;5.344;2022-09-14T06:23:54;17.17;;;15.57;;
12900;SDS011;6518;50.930;5.344;2022-09-14T06:26:21;16.88;;;15.35;;
12900;SDS011;6518;50.930;5.344;2022-09-14T06:28:49;17.58;;;15.75;;
12900;SDS011;6518;50.930;5.344;2022-09-14T06:31:16;16.08;;;14.57;;
12900;SDS011;6518;50.930;5.344;2022-09-14T06:33:46;16.10;;;14.60;;
12900;SDS011;6518;50.930;5.344;2022-09-14T06:36:15;15.70;;;14.10;;
12900;SDS011;6518;50.930;5.344;2022-09-14T06:38:44;15.13;;;13.63;;
12900;SDS011;6518;50.930;5.344;2022-09-14T06:41:12;15.10;;;13.70;;
12900;SDS011;6518;50.930;5.344;2022-09-14T06:43:42;14.75;;;13.45;;
12900;SDS011;6518;50.930;5.344;2022-09-14T06:46:11;16.75;;;15.15;;
12900;SDS011;6518;50.930;5.344;2022-09-14T06:48:41;14.88;;;13.48;;
12900;SDS011;6518;50.930;5.344;2022-09-14T06:51:10;15.57;;;14.07;;
12900;SDS011;6518;50.930;5.344;2022-09-14T06:53:38;15.07;;;13.55;;
12900;SDS011;6518;50.930;5.344;2022-09-14T06:56:05;14.15;;;12.65;;
12900;SDS011;6518;50.930;5.344;2022-09-14T06:58:32;13.18;;;12.02;;
12900;SDS011;6518;50.930;5.344;2022-09-14T07:01:00;14.05;;;12.70;;
12900;SDS011;6518;50.930;5.344;2022-09-14T07:03:29;13.68;;;12.38;;
12900;SDS011;6518;50.930;5.344;2022-09-14T07:06:00;13.10;;;11.70;;
12900;SDS011;6518;50.930;5.344;2022-09-14T07:08:30;11.15;;;10.05;;
12900;SDS011;6518;50.930;5.344;2022-09-14T07:10:57;10.88;;;9.98;;
12900;SDS011;6518;50.930;5.344;2022-09-14T07:13:24;11.20;;;10.10;;
12900;SDS011;6518;50.930;5.344;2022-09-14T07:15:51;10.52;;;9.63;;
12900;SDS011;6518;50.930;5.344;2022-09-14T07:18:18;12.38;;;10.13;;
12900;SDS011;6518;50.930;5.344;2022-09-14T07:20:47;11.25;;;9.75;;
12900;SDS011;6518;50.930;5.344;2022-09-14T07:23:14;9.85;;;9.05;;
12900;SDS011;6518;50.930;5.344;2022-09-14T07:25:41;9.95;;;9.00;;
12900;SDS011;6518;50.930;5.344;2022-09-14T07:28:08;8.73;;;7.93;;
12900;SDS011;6518;50.930;5.344;2022-09-14T07:30:35;9.05;;;8.15;;
12900;SDS011;6518;50.930;5.344;2022-09-14T07:33:03;8.68;;;7.88;;
12900;SDS011;6518;50.930;5.344;2022-09-14T07:35:29;7.78;;;7.07;;
12900;SDS011;6518;50.930;5.344;2022-09-14T07:37:58;7.72;;;7.05;;
12900;SDS011;6518;50.930;5.344;2022-09-14T07:40:25;7.53;;;6.80;;
12900;SDS011;6518;50.930;5.344;2022-09-14T07:42:52;6.80;;;6.30;;
12900;SDS011;6518;50.930;5.344;2022-09-14T07:45:19;6.82;;;6.22;;
12900;SDS011;6518;50.930;5.344;2022-09-14T07:47:46;7.15;;;6.45;;
12900;SDS011;6518;50.930;5.344;2022-09-14T07:50:13;7.75;;;6.40;;
12900;SDS011;6518;50.930;5.344;2022-09-14T07:52:42;7.03;;;5.50;;
12900;SDS011;6518;50.930;5.344;2022-09-14T07:55:10;10.93;;;6.20;;
12900;SDS011;6518;50.930;5.344;2022-09-14T07:57:37;12.70;;;6.40;;
12900;SDS011;6518;50.930;5.344;2022-09-14T08:00:05;20.92;;;7.82;;
12900;SDS011;6518;50.930;5.344;2022-09-14T08:02:33;11.80;;;6.15;;
12900;SDS011;6518;50.930;5.344;2022-09-14T08:05:00;6.57;;;5.80;;
12900;SDS011;6518;50.930;5.344;2022-09-14T08:07:28;6.90;;;5.60;;
12900;SDS011;6518;50.930;5.344;2022-09-14T08:09:54;6.32;;;5.07;;
12900;SDS011;6518;50.930;5.344;2022-09-14T08:12:23;5.30;;;4.90;;
12900;SDS011;6518;50.930;5.344;2022-09-14T08:14:50;6.40;;;5.85;;
12900;SDS011;6518;50.930;5.344;2022-09-14T08:17:17;5.80;;;5.30;;
12900;SDS011;6518;50.930;5.344;2022-09-14T08:19:46;6.35;;;5.85;;
12900;SDS011;6518;50.930;5.344;2022-09-14T08:22:13;7.47;;;6.20;;
12900;SDS011;6518;50.930;5.344;2022-09-14T08:24:39;6.05;;;5.50;;
12900;SDS011;6518;50.930;5.344;2022-09-14T08:27:07;6.90;;;6.30;;
12900;SDS011;6518;50.930;5.344;2022-09-14T08:29:37;7.40;;;6.70;;
12900;SDS011;6518;50.930;5.344;2022-09-14T08:32:04;7.40;;;6.28;;
12900;SDS011;6518;50.930;5.344;2022-09-14T08:34:31;7.63;;;6.88;;
12900;SDS011;6518;50.930;5.344;2022-09-14T08:36:58;7.25;;;6.65;;
12900;SDS011;6518;50.930;5.344;2022-09-14T08:39:25;7.57;;;6.97;;
12900;SDS011;6518;50.930;5.344;2022-09-14T08:41:53;8.52;;;7.78;;
12900;SDS011;6518;50.930;5.344;2022-09-14T08:44:23;8.98;;;8.25;;
12900;SDS011;6518;50.930;5.344;2022-09-14T08:46:58;9.55;;;8.75;;
12900;SDS011;6518;50.930;5.344;2022-09-14T08:49:38;9.85;;;9.05;;
12900;SDS011;6518;50.930;5.344;2022-09-14T08:52:14;8.75;;;8.05;;
12900;SDS011;6518;50.930;5.344;2022-09-14T08:54:48;10.20;;;9.20;;
12900;SDS011;6518;50.930;5.344;2022-09-14T08:57:18;13.25;;;9.35;;
12900;SDS011;6518;50.930;5.344;2022-09-14T08:59:51;10.23;;;9.23;;
12900;SDS011;6518;50.930;5.344;2022-09-14T09:02:38;9.27;;;8.48;;
12900;SDS011;6518;50.930;5.344;2022-09-14T09:05:27;10.50;;;9.40;;
12900;SDS011;6518;50.930;5.344;2022-09-14T09:08:02;11.05;;;10.02;;
12900;SDS011;6518;50.930;5.344;2022-09-14T09:10:37;10.43;;;9.43;;
12900;SDS011;6518;50.930;5.344;2022-09-14T09:13:06;11.25;;;10.23;;
12900;SDS011;6518;50.930;5.344;2022-09-14T09:15:39;10.88;;;9.88;;
12900;SDS011;6518;50.930;5.344;2022-09-14T09:18:12;11.80;;;10.70;;
12900;SDS011;6518;50.930;5.344;2022-09-14T09:20:45;12.65;;;11.35;;
12900;SDS011;6518;50.930;5.344;2022-09-14T09:23:16;12.00;;;10.75;;
12900;SDS011;6518;50.930;5.344;2022-09-14T09:25:49;13.18;;;11.77;;
12900;SDS011;6518;50.930;5.344;2022-09-14T09:28:19;15.43;;;12.38;;
12900;SDS011;6518;50.930;5.344;2022-09-14T09:30:47;16.27;;;12.90;;
12900;SDS011;6518;50.930;5.344;2022-09-14T09:33:16;14.52;;;13.02;;
12900;SDS011;6518;50.930;5.344;2022-09-14T09:35:47;14.20;;;12.73;;
12900;SDS011;6518;50.930;5.344;2022-09-14T09:38:14;15.73;;;14.02;;
12900;SDS011;6518;50.930;5.344;2022-09-14T09:40:44;15.40;;;13.95;;
12900;SDS011;6518;50.930;5.344;2022-09-14T09:43:14;15.75;;;13.40;;
12900;SDS011;6518;50.930;5.344;2022-09-14T09:45:46;16.38;;;14.35;;
12900;SDS011;6518;50.930;5.344;2022-09-14T09:48:21;17.73;;;14.50;;
12900;SDS011;6518;50.930;5.344;2022-09-14T09:51:00;15.20;;;13.70;;
12900;SDS011;6518;50.930;5.344;2022-09-14T09:53:30;24.33;;;15.32;;
12900;SDS011;6518;50.930;5.344;2022-09-14T09:55:59;15.60;;;13.98;;
12900;SDS011;6518;50.930;5.344;2022-09-14T09:58:31;15.25;;;13.75;;
12900;SDS011;6518;50.930;5.344;2022-09-14T10:01:04;16.13;;;14.60;;
12900;SDS011;6518;50.930;5.344;2022-09-14T10:03:36;15.68;;;14.18;;
12900;SDS011;6518;50.930;5.344;2022-09-14T10:06:06;16.35;;;14.70;;
12900;SDS011;6518;50.930;5.344;2022-09-14T10:08:39;16.23;;;14.82;;
12900;SDS011;6518;50.930;5.344;2022-09-14T10:13:52;16.25;;;14.70;;
12900;SDS011;6518;50.930;5.344;2022-09-14T10:16:19;15.20;;;13.80;;
12900;SDS011;6518;50.930;5.344;2022-09-14T10:18:48;14.82;;;13.45;;
12900;SDS011;6518;50.930;5.344;2022-09-14T10:21:16;14.80;;;13.40;;
12900;SDS011;6518;50.930;5.344;2022-09-14T10:23:44;15.55;;;14.15;;
12900;SDS011;6518;50.930;5.344;2022-09-14T10:26:21;14.80;;;13.52;;
12900;SDS011;6518;50.930;5.344;2022-09-14T10:28:50;14.73;;;13.43;;
12900;SDS011;6518;50.930;5.344;2022-09-14T10:31:20;15.00;;;13.50;;
12900;SDS011;6518;50.930;5.344;2022-09-14T10:33:54;14.55;;;13.25;;
12900;SDS011;6518;50.930;5.344;2022-09-14T10:36:23;15.25;;;13.88;;
12900;SDS011;6518;50.930;5.344;2022-09-14T10:38:52;14.40;;;13.02;;
12900;SDS011;6518;50.930;5.344;2022-09-14T10:41:24;14.77;;;13.45;;
12900;SDS011;6518;50.930;5.344;2022-09-14T10:46:58;15.32;;;13.88;;
12900;SDS011;6518;50.930;5.344;2022-09-14T10:49:48;13.88;;;12.43;;
12900;SDS011;6518;50.930;5.344;2022-09-14T10:52:28;19.58;;;12.88;;
12900;SDS011;6518;50.930;5.344;2022-09-14T10:55:08;14.82;;;13.30;;
12900;SDS011;6518;50.930;5.344;2022-09-14T10:57:57;14.25;;;12.82;;
12900;SDS011;6518;50.930;5.344;2022-09-14T11:00:38;14.25;;;12.95;;
12900;SDS011;6518;50.930;5.344;2022-09-14T11:03:14;14.15;;;12.75;;
12900;SDS011;6518;50.930;5.344;2022-09-14T11:05:50;14.00;;;12.77;;
12900;SDS011;6518;50.930;5.344;2022-09-14T11:08:28;13.63;;;12.43;;
12900;SDS011;6518;50.930;5.344;2022-09-14T11:11:03;13.55;;;12.25;;
12900;SDS011;6518;50.930;5.344;2022-09-14T11:13:48;14.48;;;12.40;;
12900;SDS011;6518;50.930;5.344;2022-09-14T11:16:27;14.65;;;12.73;;
12900;SDS011;6518;50.930;5.344;2022-09-14T11:19:05;12.95;;;11.70;;
12900;SDS011;6518;50.930;5.344;2022-09-14T11:21:45;12.52;;;11.35;;
12900;SDS011;6518;50.930;5.344;2022-09-14T11:24:17;11.23;;;10.23;;
12900;SDS011;6518;50.930;5.344;2022-09-14T11:26:51;10.93;;;9.88;;
12900;SDS011;6518;50.930;5.344;2022-09-14T11:29:25;12.38;;;11.23;;
12900;SDS011;6518;50.930;5.344;2022-09-14T11:31:57;12.38;;;11.13;;
12900;SDS011;6518;50.930;5.344;2022-09-14T11:34:31;10.20;;;9.20;;
12900;SDS011;6518;50.930;5.344;2022-09-14T11:37:06;9.63;;;8.77;;
12900;SDS011;6518;50.930;5.344;2022-09-14T11:39:36;11.40;;;10.30;;
12900;SDS011;6518;50.930;5.344;2022-09-14T11:42:08;9.45;;;8.65;;
12900;SDS011;6518;50.930;5.344;2022-09-14T11:44:41;10.32;;;8.85;;
12900;SDS011;6518;50.930;5.344;2022-09-14T11:47:11;9.38;;;8.57;;
12900;SDS011;6518;50.930;5.344;2022-09-14T11:49:55;10.32;;;9.43;;
12900;SDS011;6518;50.930;5.344;2022-09-14T11:52:27;10.88;;;9.75;;
12900;SDS011;6518;50.930;5.344;2022-09-14T11:54:56;10.25;;;9.35;;
12900;SDS011;6518;50.930;5.344;2022-09-14T11:57:25;9.25;;;8.45;;
12900;SDS011;6518;50.930;5.344;2022-09-14T11:59:54;9.60;;;8.73;;
12900;SDS011;6518;50.930;5.344;2022-09-14T12:05:33;10.52;;;9.50;;
12900;SDS011;6518;50.930;5.344;2022-09-14T12:08:03;10.05;;;9.15;;
12900;SDS011;6518;50.930;5.344;2022-09-14T12:10:59;9.88;;;8.95;;
12900;SDS011;6518;50.930;5.344;2022-09-14T12:13:27;9.68;;;8.77;;
12900;SDS011;6518;50.930;5.344;2022-09-14T12:15:59;8.65;;;7.80;;
12900;SDS011;6518;50.930;5.344;2022-09-14T12:18:28;8.10;;;7.40;;
12900;SDS011;6518;50.930;5.344;2022-09-14T12:21:00;7.53;;;6.93;;
12900;SDS011;6518;50.930;5.344;2022-09-14T12:23:31;7.43;;;6.38;;
12900;SDS011;6518;50.930;5.344;2022-09-14T12:29:04;6.20;;;5.70;;
12900;SDS011;6518;50.930;5.344;2022-09-14T12:31:58;6.45;;;5.82;;
12900;SDS011;6518;50.930;5.344;2022-09-14T12:34:31;6.93;;;6.22;;
12900;SDS011;6518;50.930;5.344;2022-09-14T12:36:59;6.50;;;5.82;;
12900;SDS011;6518;50.930;5.344;2022-09-14T12:49:00;4.57;;;3.00;;
12900;SDS011;6518;50.930;5.344;2022-09-14T12:51:31;3.33;;;2.60;;
12900;SDS011;6518;50.930;5.344;2022-09-14T12:54:11;3.25;;;2.60;;
12900;SDS011;6518;50.930;5.344;2022-09-14T12:56:48;2.10;;;1.90;;
12900;SDS011;6518;50.930;5.344;2022-09-14T12:59:27;2.30;;;1.63;;
12900;SDS011;6518;50.930;5.344;2022-09-14T13:02:03;2.83;;;1.83;;
12900;SDS011;6518;50.930;5.344;2022-09-14T13:04:54;2.28;;;2.00;;
12900;SDS011;6518;50.930;5.344;2022-09-14T13:07:24;1.77;;;1.60;;
12900;SDS011;6518;50.930;5.344;2022-09-14T13:09:54;3.88;;;2.33;;
12900;SDS011;6518;50.930;5.344;2022-09-14T13:12:25;2.33;;;1.70;;
12900;SDS011;6518;50.930;5.344;2022-09-14T13:14:57;3.33;;;2.20;;
12900;SDS011;6518;50.930;5.344;2022-09-14T13:17:28;3.13;;;2.50;;
12900;SDS011;6518;50.930;5.344;2022-09-14T13:19:55;4.25;;;2.25;;
12900;SDS011;6518;50.930;5.344;2022-09-14T13:22:24;3.22;;;2.67;;
12900;SDS011;6518;50.930;5.344;2022-09-14T13:24:53;4.60;;;2.95;;
12900;SDS011;6518;50.930;5.344;2022-09-14T13:27:21;4.90;;;2.80;;
12900;SDS011;6518;50.930;5.344;2022-09-14T13:29:56;3.20;;;2.90;;
12900;SDS011;6518;50.930;5.344;2022-09-14T13:32:25;3.15;;;2.88;;
12900;SDS011;6518;50.930;5.344;2022-09-14T13:34:53;5.05;;;3.00;;
12900;SDS011;6518;50.930;5.344;2022-09-14T13:37:20;3.90;;;3.20;;
12900;SDS011;6518;50.930;5.344;2022-09-14T13:39:49;4.55;;;3.22;;
12900;SDS011;6518;50.930;5.344;2022-09-14T13:42:18;5.32;;;3.47;;
12900;SDS011;6518;50.930;5.344;2022-09-14T13:44:45;3.80;;;3.40;;
12900;SDS011;6518;50.930;5.344;2022-09-14T13:47:15;7.68;;;3.08;;
12900;SDS011;6518;50.930;5.344;2022-09-14T13:49:45;7.68;;;4.30;;
12900;SDS011;6518;50.930;5.344;2022-09-14T13:55:07;4.28;;;3.58;;
12900;SDS011;6518;50.930;5.344;2022-09-14T14:00:32;7.35;;;4.00;;
12900;SDS011;6518;50.930;5.344;2022-09-14T14:03:16;4.18;;;3.78;;
12900;SDS011;6518;50.930;5.344;2022-09-14T14:05:50;4.07;;;3.70;;
12900;SDS011;6518;50.930;5.344;2022-09-14T14:08:23;4.95;;;4.47;;
12900;SDS011;6518;50.930;5.344;2022-09-14T14:10:56;4.80;;;4.40;;
12900;SDS011;6518;50.930;5.344;2022-09-14T14:13:26;5.40;;;4.78;;
12900;SDS011;6518;50.930;5.344;2022-09-14T14:18:51;4.90;;;4.50;;
12900;SDS011;6518;50.930;5.344;2022-09-14T14:21:24;5.30;;;4.80;;
12900;SDS011;6518;50.930;5.344;2022-09-14T14:26:46;5.90;;;5.30;;
12900;SDS011;6518;50.930;5.344;2022-09-14T14:29:14;5.50;;;5.10;;
12900;SDS011;6518;50.930;5.344;2022-09-14T14:31:41;5.60;;;5.00;;
12900;SDS011;6518;50.930;5.344;2022-09-14T14:34:10;7.00;;;5.70;;
12900;SDS011;6518;50.930;5.344;2022-09-14T14:36:45;6.32;;;5.72;;
12900;SDS011;6518;50.930;5.344;2022-09-14T14:39:16;6.80;;;6.20;;
12900;SDS011;6518;50.930;5.344;2022-09-14T14:41:44;6.50;;;5.90;;
12900;SDS011;6518;50.930;5.344;2022-09-14T14:44:12;6.82;;;6.15;;
12900;SDS011;6518;50.930;5.344;2022-09-14T14:46:42;6.65;;;5.60;;
12900;SDS011;6518;50.930;5.344;2022-09-14T14:49:10;6.38;;;5.80;;
12900;SDS011;6518;50.930;5.344;2022-09-14T14:51:37;10.60;;;7.25;;
12900;SDS011;6518;50.930;5.344;2022-09-14T14:54:04;7.60;;;6.80;;
12900;SDS011;6518;50.930;5.344;2022-09-14T14:56:32;6.88;;;6.20;;
12900;SDS011;6518;50.930;5.344;2022-09-14T14:59:00;8.20;;;7.40;;
12900;SDS011;6518;50.930;5.344;2022-09-14T15:01:26;6.95;;;6.38;;
12900;SDS011;6518;50.930;5.344;2022-09-14T15:03:53;5.72;;;5.22;;
12900;SDS011;6518;50.930;5.344;2022-09-14T15:06:22;5.25;;;4.75;;
12900;SDS011;6518;50.930;5.344;2022-09-14T15:08:52;6.88;;;5.80;;
12900;SDS011;6518;50.930;5.344;2022-09-14T15:11:19;7.50;;;6.80;;
12900;SDS011;6518;50.930;5.344;2022-09-14T15:13:48;7.03;;;6.32;;
12900;SDS011;6518;50.930;5.344;2022-09-14T15:16:15;6.78;;;6.18;;
12900;SDS011;6518;50.930;5.344;2022-09-14T15:18:42;6.63;;;5.85;;
12900;SDS011;6518;50.930;5.344;2022-09-14T15:21:09;7.10;;;6.40;;
12900;SDS011;6518;50.930;5.344;2022-09-14T15:23:36;8.85;;;8.05;;
12900;SDS011;6518;50.930;5.344;2022-09-14T15:26:03;9.48;;;8.40;;
12900;SDS011;6518;50.930;5.344;2022-09-14T15:28:30;8.00;;;7.20;;
12900;SDS011;6518;50.930;5.344;2022-09-14T15:31:03;12.77;;;9.65;;
12900;SDS011;6518;50.930;5.344;2022-09-14T15:33:31;9.50;;;8.70;;
12900;SDS011;6518;50.930;5.344;2022-09-14T15:35:58;10.18;;;9.32;;
12900;SDS011;6518;50.930;5.344;2022-09-14T15:38:25;9.93;;;9.02;;
12900;SDS011;6518;50.930;5.344;2022-09-14T15:40:51;11.07;;;10.07;;
12900;SDS011;6518;50.930;5.344;2022-09-14T15:43:18;10.80;;;9.82;;